Pagrindinis puslapis
METAR-TAF:

METAR-TAF

Oro uostai :

Kristiansund, Norvegija

platuma: 63-07N, ilguma: 007-50E, Aukštis: 6 m

Dabartinis oras

Ataskaita buvo paskelbta 39 minutes, ne 22:20 UTC
Vėjas 3 kt iš Rytų, svyruoja nuo Šiaurės Rytų ir Rytų/Pietryčių
Temperatūra 11°C
Drėgmė 94%
Slėgis 1008 hPa
Matomumas 10 km arba daugiau

METAR: ENKB 162220Z AUTO 08003KT 040V120 9999 NCD 11/10 Q1008 RMK WIND 745FT 13009KT

Laikas: 00:59 (22:59 UTC)

Prognozė

Ataskaita buvo paskelbta 3 valandos ir 44 minutes, ne 19:15 UTC
Prognozė galioja nuo 16 metu 19 UTC su 16 metu 22 UTC
Vėjas 6 kt iš Šiaurės Vakarų
Matomumas 10 km arba daugiau
Išsisklaidę debesys ne aukštis 5000 ft
Su prošvaistėmis ne aukštis 9000 ft
Laikinai
nuo 16 metu 19 UTC su 16 metu 22 UTC
Išsisklaidę debesys ne aukštis 4000 ft, Liūtiniai kamuoliniai debesys.
lietus
Tikimybė 30% :
Laikinai
nuo 16 metu 19 UTC su 16 metu 21 UTC
perkūnija, lietus,

TAF: ENKB 161915Z 1619/1622 32006KT 9999 SCT050 BKN090 TEMPO 1619/1622 SHRA SCT040CB PROB30 TEMPO 1619/1621 TSRA

Orai ataskaitas ir orų prognozės (METAR, TAF).

turimą stotys yra geltonos ir raudonos taškus žemėlapyje.

Perkelti pele per norėdami pamatyti stoties vardą.

Tada spustelėkite, norėdami matyti oro stebėjimo ir prognozės.

Norėdami pakeisti žemėlapį: spustelėkite ant žalios mygtukų su juodo kryžiaus žemyn,; žalią mygtuką su brūkšneliu, jei norite nutolinti; arba žalių rodyklių gretimoms žemėlapius.


METAR-TAF: